sensor_id;sensor_type;location;lat;lon;timestamp;P1;durP1;ratioP1;P2;durP2;ratioP2
21771;SDS011;11047;47.904;8.110;2023-02-01T00:02:04;1.83;;;1.60;;
21771;SDS011;11047;47.904;8.110;2023-02-01T00:04:31;2.15;;;1.67;;
21771;SDS011;11047;47.904;8.110;2023-02-01T00:06:58;2.13;;;1.55;;
21771;SDS011;11047;47.904;8.110;2023-02-01T00:09:26;1.20;;;1.10;;
21771;SDS011;11047;47.904;8.110;2023-02-01T00:11:53;1.58;;;1.30;;
21771;SDS011;11047;47.904;8.110;2023-02-01T00:14:20;1.65;;;1.17;;
21771;SDS011;11047;47.904;8.110;2023-02-01T00:16:47;1.27;;;1.17;;
21771;SDS011;11047;47.904;8.110;2023-02-01T00:19:15;1.20;;;1.10;;
21771;SDS011;11047;47.904;8.110;2023-02-01T00:21:42;1.40;;;1.25;;
21771;SDS011;11047;47.904;8.110;2023-02-01T00:24:11;2.35;;;0.98;;
21771;SDS011;11047;47.904;8.110;2023-02-01T00:26:39;1.95;;;1.38;;
21771;SDS011;11047;47.904;8.110;2023-02-01T00:29:09;1.42;;;1.13;;
21771;SDS011;11047;47.904;8.110;2023-02-01T00:31:38;1.38;;;1.27;;
21771;SDS011;11047;47.904;8.110;2023-02-01T00:34:05;1.00;;;0.90;;
21771;SDS011;11047;47.904;8.110;2023-02-01T00:36:35;1.45;;;0.70;;
21771;SDS011;11047;47.904;8.110;2023-02-01T00:39:02;2.05;;;1.33;;
21771;SDS011;11047;47.904;8.110;2023-02-01T00:41:28;1.80;;;0.93;;
21771;SDS011;11047;47.904;8.110;2023-02-01T00:43:55;0.75;;;0.70;;
21771;SDS011;11047;47.904;8.110;2023-02-01T00:46:22;1.95;;;1.40;;
21771;SDS011;11047;47.904;8.110;2023-02-01T00:48:50;1.40;;;1.30;;
21771;SDS011;11047;47.904;8.110;2023-02-01T00:51:17;1.77;;;0.82;;
21771;SDS011;11047;47.904;8.110;2023-02-01T00:53:47;1.00;;;0.90;;
21771;SDS011;11047;47.904;8.110;2023-02-01T00:56:14;1.08;;;0.93;;
21771;SDS011;11047;47.904;8.110;2023-02-01T00:58:42;0.60;;;0.60;;
21771;SDS011;11047;47.904;8.110;2023-02-01T01:01:10;0.70;;;0.70;;
21771;SDS011;11047;47.904;8.110;2023-02-01T01:03:39;0.77;;;0.77;;
21771;SDS011;11047;47.904;8.110;2023-02-01T01:06:09;0.63;;;0.52;;
21771;SDS011;11047;47.904;8.110;2023-02-01T01:08:37;0.80;;;0.70;;
21771;SDS011;11047;47.904;8.110;2023-02-01T01:11:06;0.70;;;0.70;;
21771;SDS011;11047;47.904;8.110;2023-02-01T01:13:35;1.10;;;0.90;;
21771;SDS011;11047;47.904;8.110;2023-02-01T01:16:02;2.05;;;1.25;;
21771;SDS011;11047;47.904;8.110;2023-02-01T01:18:30;1.55;;;1.42;;
21771;SDS011;11047;47.904;8.110;2023-02-01T01:20:58;1.80;;;1.40;;
21771;SDS011;11047;47.904;8.110;2023-02-01T01:23:25;2.15;;;1.45;;
21771;SDS011;11047;47.904;8.110;2023-02-01T01:25:53;2.78;;;1.88;;
21771;SDS011;11047;47.904;8.110;2023-02-01T01:28:21;2.13;;;1.67;;
21771;SDS011;11047;47.904;8.110;2023-02-01T01:30:48;2.53;;;2.13;;
21771;SDS011;11047;47.904;8.110;2023-02-01T01:33:15;2.92;;;1.95;;
21771;SDS011;11047;47.904;8.110;2023-02-01T01:35:42;4.80;;;2.70;;
21771;SDS011;11047;47.904;8.110;2023-02-01T01:38:09;2.67;;;2.03;;
21771;SDS011;11047;47.904;8.110;2023-02-01T01:40:37;3.50;;;2.50;;
21771;SDS011;11047;47.904;8.110;2023-02-01T01:43:09;3.10;;;2.50;;
21771;SDS011;11047;47.904;8.110;2023-02-01T01:45:40;3.08;;;2.60;;
21771;SDS011;11047;47.904;8.110;2023-02-01T01:48:08;2.67;;;2.10;;
21771;SDS011;11047;47.904;8.110;2023-02-01T01:50:41;3.00;;;2.60;;
21771;SDS011;11047;47.904;8.110;2023-02-01T01:53:13;3.25;;;2.38;;
21771;SDS011;11047;47.904;8.110;2023-02-01T01:55:47;2.60;;;2.30;;
21771;SDS011;11047;47.904;8.110;2023-02-01T01:58:17;2.88;;;2.15;;
21771;SDS011;11047;47.904;8.110;2023-02-01T02:00:48;3.30;;;2.42;;
21771;SDS011;11047;47.904;8.110;2023-02-01T02:03:16;2.10;;;1.90;;
21771;SDS011;11047;47.904;8.110;2023-02-01T02:05:46;6.32;;;2.65;;
21771;SDS011;11047;47.904;8.110;2023-02-01T02:08:16;2.47;;;2.00;;
21771;SDS011;11047;47.904;8.110;2023-02-01T02:10:45;3.33;;;3.03;;
21771;SDS011;11047;47.904;8.110;2023-02-01T02:13:29;3.80;;;2.88;;
21771;SDS011;11047;47.904;8.110;2023-02-01T02:16:03;2.45;;;2.20;;
21771;SDS011;11047;47.904;8.110;2023-02-01T02:18:41;2.40;;;2.20;;
21771;SDS011;11047;47.904;8.110;2023-02-01T02:21:17;3.63;;;2.17;;
21771;SDS011;11047;47.904;8.110;2023-02-01T02:24:01;2.97;;;2.10;;
21771;SDS011;11047;47.904;8.110;2023-02-01T02:29:45;3.00;;;1.50;;
21771;SDS011;11047;47.904;8.110;2023-02-01T02:32:47;3.72;;;1.55;;
21771;SDS011;11047;47.904;8.110;2023-02-01T02:35:38;2.38;;;1.63;;
21771;SDS011;11047;47.904;8.110;2023-02-01T02:38:13;2.95;;;1.90;;
21771;SDS011;11047;47.904;8.110;2023-02-01T02:40:46;2.35;;;1.73;;
21771;SDS011;11047;47.904;8.110;2023-02-01T02:43:19;1.80;;;1.08;;
21771;SDS011;11047;47.904;8.110;2023-02-01T02:46:07;1.45;;;1.35;;
21771;SDS011;11047;47.904;8.110;2023-02-01T02:48:59;1.50;;;1.40;;
21771;SDS011;11047;47.904;8.110;2023-02-01T02:51:32;1.90;;;1.30;;
21771;SDS011;11047;47.904;8.110;2023-02-01T02:54:22;2.22;;;1.40;;
21771;SDS011;11047;47.904;8.110;2023-02-01T02:57:10;2.60;;;1.60;;
21771;SDS011;11047;47.904;8.110;2023-02-01T02:59:58;1.02;;;0.93;;
21771;SDS011;11047;47.904;8.110;2023-02-01T03:02:45;1.48;;;1.20;;
21771;SDS011;11047;47.904;8.110;2023-02-01T03:05:32;2.25;;;0.75;;
21771;SDS011;11047;47.904;8.110;2023-02-01T03:08:08;0.68;;;0.60;;
21771;SDS011;11047;47.904;8.110;2023-02-01T03:10:51;1.50;;;1.10;;
21771;SDS011;11047;47.904;8.110;2023-02-01T03:13:25;1.90;;;1.60;;
21771;SDS011;11047;47.904;8.110;2023-02-01T03:15:58;2.38;;;1.88;;
21771;SDS011;11047;47.904;8.110;2023-02-01T03:18:32;2.10;;;1.42;;
21771;SDS011;11047;47.904;8.110;2023-02-01T03:21:04;1.60;;;1.00;;
21771;SDS011;11047;47.904;8.110;2023-02-01T03:23:36;2.10;;;1.38;;
21771;SDS011;11047;47.904;8.110;2023-02-01T03:26:03;2.25;;;1.33;;
21771;SDS011;11047;47.904;8.110;2023-02-01T03:28:35;2.80;;;1.55;;
21771;SDS011;11047;47.904;8.110;2023-02-01T03:31:05;2.28;;;1.60;;
21771;SDS011;11047;47.904;8.110;2023-02-01T03:33:33;1.30;;;1.20;;
21771;SDS011;11047;47.904;8.110;2023-02-01T03:36:05;1.52;;;1.17;;
21771;SDS011;11047;47.904;8.110;2023-02-01T03:38:43;1.70;;;1.10;;
21771;SDS011;11047;47.904;8.110;2023-02-01T03:41:18;1.75;;;1.35;;
21771;SDS011;11047;47.904;8.110;2023-02-01T03:43:51;1.23;;;1.00;;
21771;SDS011;11047;47.904;8.110;2023-02-01T03:46:24;1.08;;;0.98;;
21771;SDS011;11047;47.904;8.110;2023-02-01T03:48:57;1.75;;;1.13;;
21771;SDS011;11047;47.904;8.110;2023-02-01T03:51:28;2.38;;;1.02;;
21771;SDS011;11047;47.904;8.110;2023-02-01T03:53:58;4.70;;;1.50;;
21771;SDS011;11047;47.904;8.110;2023-02-01T03:56:27;1.27;;;1.13;;
21771;SDS011;11047;47.904;8.110;2023-02-01T03:58:56;1.35;;;1.00;;
21771;SDS011;11047;47.904;8.110;2023-02-01T04:01:26;2.42;;;2.15;;
21771;SDS011;11047;47.904;8.110;2023-02-01T04:03:54;1.58;;;1.33;;
21771;SDS011;11047;47.904;8.110;2023-02-01T04:06:22;1.83;;;1.52;;
21771;SDS011;11047;47.904;8.110;2023-02-01T04:08:50;1.92;;;1.35;;
21771;SDS011;11047;47.904;8.110;2023-02-01T04:11:18;1.80;;;1.50;;
21771;SDS011;11047;47.904;8.110;2023-02-01T04:13:45;1.65;;;1.45;;
21771;SDS011;11047;47.904;8.110;2023-02-01T04:16:12;1.05;;;0.95;;
21771;SDS011;11047;47.904;8.110;2023-02-01T04:18:39;2.97;;;1.52;;
21771;SDS011;11047;47.904;8.110;2023-02-01T04:21:06;1.35;;;1.15;;
21771;SDS011;11047;47.904;8.110;2023-02-01T04:23:33;1.15;;;1.05;;
21771;SDS011;11047;47.904;8.110;2023-02-01T04:26:01;1.83;;;1.10;;
21771;SDS011;11047;47.904;8.110;2023-02-01T04:28:31;1.42;;;1.20;;
21771;SDS011;11047;47.904;8.110;2023-02-01T04:30:58;1.50;;;1.10;;
21771;SDS011;11047;47.904;8.110;2023-02-01T04:33:25;1.30;;;1.20;;
21771;SDS011;11047;47.904;8.110;2023-02-01T04:35:52;1.85;;;1.58;;
21771;SDS011;11047;47.904;8.110;2023-02-01T04:38:18;1.58;;;1.30;;
21771;SDS011;11047;47.904;8.110;2023-02-01T04:40:46;1.20;;;1.10;;
21771;SDS011;11047;47.904;8.110;2023-02-01T04:43:14;1.35;;;0.85;;
21771;SDS011;11047;47.904;8.110;2023-02-01T04:45:45;0.93;;;0.80;;
21771;SDS011;11047;47.904;8.110;2023-02-01T04:48:13;1.40;;;1.10;;
21771;SDS011;11047;47.904;8.110;2023-02-01T04:50:40;2.00;;;1.00;;
21771;SDS011;11047;47.904;8.110;2023-02-01T04:53:07;1.08;;;0.90;;
21771;SDS011;11047;47.904;8.110;2023-02-01T04:55:34;0.77;;;0.70;;
21771;SDS011;11047;47.904;8.110;2023-02-01T04:58:01;1.45;;;1.05;;
21771;SDS011;11047;47.904;8.110;2023-02-01T05:00:28;0.75;;;0.75;;
21771;SDS011;11047;47.904;8.110;2023-02-01T05:02:56;0.50;;;0.50;;
21771;SDS011;11047;47.904;8.110;2023-02-01T05:05:23;1.60;;;1.23;;
21771;SDS011;11047;47.904;8.110;2023-02-01T05:07:50;0.93;;;0.73;;
21771;SDS011;11047;47.904;8.110;2023-02-01T05:10:17;0.95;;;0.80;;
21771;SDS011;11047;47.904;8.110;2023-02-01T05:12:44;0.88;;;0.52;;
21771;SDS011;11047;47.904;8.110;2023-02-01T05:15:28;0.80;;;0.80;;
21771;SDS011;11047;47.904;8.110;2023-02-01T05:17:56;0.93;;;0.88;;
21771;SDS011;11047;47.904;8.110;2023-02-01T05:20:24;1.05;;;0.90;;
21771;SDS011;11047;47.904;8.110;2023-02-01T05:22:51;0.80;;;0.80;;
21771;SDS011;11047;47.904;8.110;2023-02-01T05:25:17;3.53;;;2.55;;
21771;SDS011;11047;47.904;8.110;2023-02-01T05:27:45;1.75;;;0.93;;
21771;SDS011;11047;47.904;8.110;2023-02-01T05:30:12;0.90;;;0.70;;
21771;SDS011;11047;47.904;8.110;2023-02-01T05:32:39;1.40;;;1.15;;
21771;SDS011;11047;47.904;8.110;2023-02-01T05:35:08;2.00;;;1.45;;
21771;SDS011;11047;47.904;8.110;2023-02-01T05:37:35;1.38;;;0.98;;
21771;SDS011;11047;47.904;8.110;2023-02-01T05:40:02;1.10;;;1.00;;
21771;SDS011;11047;47.904;8.110;2023-02-01T05:42:29;0.50;;;0.50;;
21771;SDS011;11047;47.904;8.110;2023-02-01T05:44:56;2.15;;;0.90;;
21771;SDS011;11047;47.904;8.110;2023-02-01T05:47:23;1.20;;;0.82;;
21771;SDS011;11047;47.904;8.110;2023-02-01T05:49:50;1.13;;;0.98;;
21771;SDS011;11047;47.904;8.110;2023-02-01T05:52:18;2.50;;;1.40;;
21771;SDS011;11047;47.904;8.110;2023-02-01T05:54:45;4.78;;;2.95;;
21771;SDS011;11047;47.904;8.110;2023-02-01T05:57:12;1.00;;;0.90;;
21771;SDS011;11047;47.904;8.110;2023-02-01T05:59:39;1.63;;;1.25;;
21771;SDS011;11047;47.904;8.110;2023-02-01T06:02:09;1.52;;;0.90;;
21771;SDS011;11047;47.904;8.110;2023-02-01T06:04:36;1.13;;;0.80;;
21771;SDS011;11047;47.904;8.110;2023-02-01T06:07:03;1.25;;;1.15;;
21771;SDS011;11047;47.904;8.110;2023-02-01T06:09:32;2.92;;;1.33;;
21771;SDS011;11047;47.904;8.110;2023-02-01T06:11:59;1.05;;;0.95;;
21771;SDS011;11047;47.904;8.110;2023-02-01T06:14:26;1.60;;;1.00;;
21771;SDS011;11047;47.904;8.110;2023-02-01T06:16:53;1.73;;;1.20;;
21771;SDS011;11047;47.904;8.110;2023-02-01T06:19:20;1.92;;;1.40;;
21771;SDS011;11047;47.904;8.110;2023-02-01T06:21:47;0.60;;;0.60;;
21771;SDS011;11047;47.904;8.110;2023-02-01T06:24:14;0.50;;;0.50;;
21771;SDS011;11047;47.904;8.110;2023-02-01T06:26:42;1.13;;;0.70;;
21771;SDS011;11047;47.904;8.110;2023-02-01T06:29:09;1.95;;;1.30;;
21771;SDS011;11047;47.904;8.110;2023-02-01T06:31:36;1.42;;;1.02;;
21771;SDS011;11047;47.904;8.110;2023-02-01T06:34:03;0.63;;;0.57;;
21771;SDS011;11047;47.904;8.110;2023-02-01T06:36:30;1.05;;;0.80;;
21771;SDS011;11047;47.904;8.110;2023-02-01T06:38:57;1.63;;;1.20;;
21771;SDS011;11047;47.904;8.110;2023-02-01T06:41:24;1.90;;;1.48;;
21771;SDS011;11047;47.904;8.110;2023-02-01T06:43:53;0.80;;;0.70;;
21771;SDS011;11047;47.904;8.110;2023-02-01T06:46:20;1.23;;;0.93;;
21771;SDS011;11047;47.904;8.110;2023-02-01T06:48:47;0.82;;;0.70;;
21771;SDS011;11047;47.904;8.110;2023-02-01T06:51:19;3.42;;;1.40;;
21771;SDS011;11047;47.904;8.110;2023-02-01T06:53:47;1.13;;;0.90;;
21771;SDS011;11047;47.904;8.110;2023-02-01T06:56:14;2.63;;;1.05;;
21771;SDS011;11047;47.904;8.110;2023-02-01T06:58:40;0.98;;;0.85;;
21771;SDS011;11047;47.904;8.110;2023-02-01T07:01:09;3.38;;;0.95;;
21771;SDS011;11047;47.904;8.110;2023-02-01T07:03:37;0.90;;;0.80;;
21771;SDS011;11047;47.904;8.110;2023-02-01T07:06:04;1.40;;;0.75;;
21771;SDS011;11047;47.904;8.110;2023-02-01T07:08:32;1.13;;;0.90;;
21771;SDS011;11047;47.904;8.110;2023-02-01T07:11:01;1.65;;;0.80;;
21771;SDS011;11047;47.904;8.110;2023-02-01T07:13:29;1.17;;;0.80;;
21771;SDS011;11047;47.904;8.110;2023-02-01T07:15:57;1.40;;;0.80;;
21771;SDS011;11047;47.904;8.110;2023-02-01T07:18:26;2.80;;;0.85;;
21771;SDS011;11047;47.904;8.110;2023-02-01T07:20:54;1.17;;;0.98;;
21771;SDS011;11047;47.904;8.110;2023-02-01T07:23:21;2.15;;;1.17;;
21771;SDS011;11047;47.904;8.110;2023-02-01T07:25:52;1.52;;;1.10;;
21771;SDS011;11047;47.904;8.110;2023-02-01T07:28:19;3.00;;;1.10;;
21771;SDS011;11047;47.904;8.110;2023-02-01T07:30:46;3.05;;;1.83;;
21771;SDS011;11047;47.904;8.110;2023-02-01T07:33:16;3.90;;;1.35;;
21771;SDS011;11047;47.904;8.110;2023-02-01T07:35:45;3.42;;;1.50;;
21771;SDS011;11047;47.904;8.110;2023-02-01T07:38:12;2.08;;;1.48;;
21771;SDS011;11047;47.904;8.110;2023-02-01T07:40:39;3.03;;;1.20;;
21771;SDS011;11047;47.904;8.110;2023-02-01T07:43:05;2.10;;;1.30;;
21771;SDS011;11047;47.904;8.110;2023-02-01T07:45:33;4.40;;;1.58;;
21771;SDS011;11047;47.904;8.110;2023-02-01T07:48:00;1.92;;;1.20;;
21771;SDS011;11047;47.904;8.110;2023-02-01T07:50:28;2.05;;;1.35;;
21771;SDS011;11047;47.904;8.110;2023-02-01T07:52:56;1.95;;;1.20;;
21771;SDS011;11047;47.904;8.110;2023-02-01T07:55:24;1.80;;;1.10;;
21771;SDS011;11047;47.904;8.110;2023-02-01T07:57:51;2.50;;;1.15;;
21771;SDS011;11047;47.904;8.110;2023-02-01T08:00:19;2.70;;;1.40;;
21771;SDS011;11047;47.904;8.110;2023-02-01T08:03:03;3.55;;;1.25;;
21771;SDS011;11047;47.904;8.110;2023-02-01T08:05:30;4.22;;;1.20;;
21771;SDS011;11047;47.904;8.110;2023-02-01T08:07:59;4.82;;;1.65;;
21771;SDS011;11047;47.904;8.110;2023-02-01T08:10:26;3.20;;;1.63;;
21771;SDS011;11047;47.904;8.110;2023-02-01T08:12:57;4.40;;;1.73;;
21771;SDS011;11047;47.904;8.110;2023-02-01T08:15:24;2.30;;;1.50;;
21771;SDS011;11047;47.904;8.110;2023-02-01T08:17:51;2.28;;;1.30;;
21771;SDS011;11047;47.904;8.110;2023-02-01T08:20:19;3.97;;;1.35;;
21771;SDS011;11047;47.904;8.110;2023-02-01T08:22:47;2.47;;;1.63;;
21771;SDS011;11047;47.904;8.110;2023-02-01T08:25:16;3.38;;;1.70;;
21771;SDS011;11047;47.904;8.110;2023-02-01T08:27:44;5.45;;;1.20;;
21771;SDS011;11047;47.904;8.110;2023-02-01T08:30:11;3.22;;;1.48;;
21771;SDS011;11047;47.904;8.110;2023-02-01T08:32:39;3.70;;;1.48;;
21771;SDS011;11047;47.904;8.110;2023-02-01T08:35:06;2.45;;;1.50;;
21771;SDS011;11047;47.904;8.110;2023-02-01T08:37:33;2.20;;;1.20;;
21771;SDS011;11047;47.904;8.110;2023-02-01T08:40:00;1.73;;;1.13;;
21771;SDS011;11047;47.904;8.110;2023-02-01T08:42:28;3.67;;;1.50;;
21771;SDS011;11047;47.904;8.110;2023-02-01T08:45:12;2.22;;;1.60;;
21771;SDS011;11047;47.904;8.110;2023-02-01T08:47:39;5.03;;;1.83;;
21771;SDS011;11047;47.904;8.110;2023-02-01T08:50:07;3.88;;;1.88;;
21771;SDS011;11047;47.904;8.110;2023-02-01T08:52:35;7.25;;;1.85;;
21771;SDS011;11047;47.904;8.110;2023-02-01T08:55:01;5.78;;;1.75;;
21771;SDS011;11047;47.904;8.110;2023-02-01T08:57:30;9.40;;;2.05;;
21771;SDS011;11047;47.904;8.110;2023-02-01T08:59:57;4.30;;;1.67;;
21771;SDS011;11047;47.904;8.110;2023-02-01T09:02:24;2.17;;;1.35;;
21771;SDS011;11047;47.904;8.110;2023-02-01T09:04:51;6.38;;;2.22;;
21771;SDS011;11047;47.904;8.110;2023-02-01T09:07:18;2.40;;;1.52;;
21771;SDS011;11047;47.904;8.110;2023-02-01T09:09:45;5.50;;;1.52;;
21771;SDS011;11047;47.904;8.110;2023-02-01T09:12:12;2.65;;;1.38;;
21771;SDS011;11047;47.904;8.110;2023-02-01T09:14:40;6.18;;;1.30;;
21771;SDS011;11047;47.904;8.110;2023-02-01T09:17:07;2.78;;;1.38;;
21771;SDS011;11047;47.904;8.110;2023-02-01T09:19:34;2.55;;;1.15;;
21771;SDS011;11047;47.904;8.110;2023-02-01T09:22:01;3.03;;;1.63;;
21771;SDS011;11047;47.904;8.110;2023-02-01T09:24:27;2.92;;;1.30;;
21771;SDS011;11047;47.904;8.110;2023-02-01T09:26:54;1.92;;;1.30;;
21771;SDS011;11047;47.904;8.110;2023-02-01T09:29:21;2.63;;;1.45;;
21771;SDS011;11047;47.904;8.110;2023-02-01T09:31:49;1.83;;;1.38;;
21771;SDS011;11047;47.904;8.110;2023-02-01T09:34:16;2.53;;;1.20;;
21771;SDS011;11047;47.904;8.110;2023-02-01T09:36:43;2.03;;;1.20;;
21771;SDS011;11047;47.904;8.110;2023-02-01T09:39:10;2.30;;;1.00;;
21771;SDS011;11047;47.904;8.110;2023-02-01T09:41:40;1.83;;;0.90;;
21771;SDS011;11047;47.904;8.110;2023-02-01T09:44:17;1.85;;;0.80;;
21771;SDS011;11047;47.904;8.110;2023-02-01T09:46:58;2.65;;;1.10;;
21771;SDS011;11047;47.904;8.110;2023-02-01T09:49:26;2.35;;;0.98;;
21771;SDS011;11047;47.904;8.110;2023-02-01T09:51:55;1.58;;;0.82;;
21771;SDS011;11047;47.904;8.110;2023-02-01T09:54:23;2.88;;;0.77;;
21771;SDS011;11047;47.904;8.110;2023-02-01T09:56:53;1.67;;;1.05;;
21771;SDS011;11047;47.904;8.110;2023-02-01T09:59:28;1.75;;;1.13;;
21771;SDS011;11047;47.904;8.110;2023-02-01T10:02:02;2.70;;;0.80;;
21771;SDS011;11047;47.904;8.110;2023-02-01T10:04:31;2.67;;;1.65;;
21771;SDS011;11047;47.904;8.110;2023-02-01T10:07:10;1.88;;;0.90;;
21771;SDS011;11047;47.904;8.110;2023-02-01T10:09:50;0.98;;;0.73;;
21771;SDS011;11047;47.904;8.110;2023-02-01T10:12:36;2.05;;;1.00;;
21771;SDS011;11047;47.904;8.110;2023-02-01T10:15:23;3.78;;;1.48;;
21771;SDS011;11047;47.904;8.110;2023-02-01T10:18:02;3.45;;;1.10;;
21771;SDS011;11047;47.904;8.110;2023-02-01T10:20:44;2.28;;;1.50;;
21771;SDS011;11047;47.904;8.110;2023-02-01T10:23:26;2.58;;;1.02;;
21771;SDS011;11047;47.904;8.110;2023-02-01T10:26:05;5.20;;;1.33;;
21771;SDS011;11047;47.904;8.110;2023-02-01T10:28:38;2.13;;;1.13;;
21771;SDS011;11047;47.904;8.110;2023-02-01T10:31:07;1.92;;;1.40;;
21771;SDS011;11047;47.904;8.110;2023-02-01T10:33:39;2.70;;;1.40;;
21771;SDS011;11047;47.904;8.110;2023-02-01T10:36:11;2.25;;;1.20;;
21771;SDS011;11047;47.904;8.110;2023-02-01T10:41:11;2.15;;;1.23;;
21771;SDS011;11047;47.904;8.110;2023-02-01T10:43:40;5.50;;;1.60;;
21771;SDS011;11047;47.904;8.110;2023-02-01T10:46:08;6.20;;;1.73;;
21771;SDS011;11047;47.904;8.110;2023-02-01T10:48:36;2.72;;;1.30;;
21771;SDS011;11047;47.904;8.110;2023-02-01T10:51:06;1.67;;;1.20;;
21771;SDS011;11047;47.904;8.110;2023-02-01T10:53:41;2.60;;;1.50;;
21771;SDS011;11047;47.904;8.110;2023-02-01T10:56:12;4.97;;;1.65;;
21771;SDS011;11047;47.904;8.110;2023-02-01T10:58:43;2.85;;;1.58;;
21771;SDS011;11047;47.904;8.110;2023-02-01T11:01:15;3.38;;;1.42;;
21771;SDS011;11047;47.904;8.110;2023-02-01T11:03:46;1.95;;;1.15;;
21771;SDS011;11047;47.904;8.110;2023-02-01T11:06:22;3.03;;;1.95;;
21771;SDS011;11047;47.904;8.110;2023-02-01T11:11:20;3.28;;;1.63;;
21771;SDS011;11047;47.904;8.110;2023-02-01T11:13:51;3.25;;;1.92;;
21771;SDS011;11047;47.904;8.110;2023-02-01T11:16:28;4.22;;;1.75;;
21771;SDS011;11047;47.904;8.110;2023-02-01T11:18:58;3.50;;;1.48;;
21771;SDS011;11047;47.904;8.110;2023-02-01T11:21:25;3.47;;;1.50;;
21771;SDS011;11047;47.904;8.110;2023-02-01T11:23:53;4.00;;;1.48;;
21771;SDS011;11047;47.904;8.110;2023-02-01T11:26:21;5.50;;;1.70;;
21771;SDS011;11047;47.904;8.110;2023-02-01T11:28:53;4.43;;;2.28;;
21771;SDS011;11047;47.904;8.110;2023-02-01T11:31:24;2.83;;;1.55;;
21771;SDS011;11047;47.904;8.110;2023-02-01T11:33:52;6.53;;;2.20;;
21771;SDS011;11047;47.904;8.110;2023-02-01T11:36:26;6.05;;;1.90;;
21771;SDS011;11047;47.904;8.110;2023-02-01T11:39:07;6.53;;;1.88;;
21771;SDS011;11047;47.904;8.110;2023-02-01T11:41:43;4.47;;;2.42;;
21771;SDS011;11047;47.904;8.110;2023-02-01T11:44:21;6.80;;;2.10;;
21771;SDS011;11047;47.904;8.110;2023-02-01T11:46:52;4.60;;;1.52;;
21771;SDS011;11047;47.904;8.110;2023-02-01T11:49:20;7.93;;;2.50;;
21771;SDS011;11047;47.904;8.110;2023-02-01T11:52:02;3.53;;;1.88;;
21771;SDS011;11047;47.904;8.110;2023-02-01T11:54:46;3.63;;;1.80;;
21771;SDS011;11047;47.904;8.110;2023-02-01T11:57:25;4.13;;;2.22;;
21771;SDS011;11047;47.904;8.110;2023-02-01T12:00:04;6.22;;;2.35;;
21771;SDS011;11047;47.904;8.110;2023-02-01T12:02:56;4.40;;;2.00;;
21771;SDS011;11047;47.904;8.110;2023-02-01T12:05:50;5.63;;;1.95;;
21771;SDS011;11047;47.904;8.110;2023-02-01T12:08:26;7.18;;;3.20;;
21771;SDS011;11047;47.904;8.110;2023-02-01T12:11:08;5.97;;;1.83;;
21771;SDS011;11047;47.904;8.110;2023-02-01T12:13:51;8.30;;;2.17;;
21771;SDS011;11047;47.904;8.110;2023-02-01T12:16:27;7.00;;;2.05;;
21771;SDS011;11047;47.904;8.110;2023-02-01T12:19:11;5.47;;;2.38;;
21771;SDS011;11047;47.904;8.110;2023-02-01T12:21:59;5.20;;;2.20;;
21771;SDS011;11047;47.904;8.110;2023-02-01T12:24:48;8.98;;;2.33;;
21771;SDS011;11047;47.904;8.110;2023-02-01T12:27:42;7.38;;;1.98;;
21771;SDS011;11047;47.904;8.110;2023-02-01T12:30:34;5.47;;;1.80;;
21771;SDS011;11047;47.904;8.110;2023-02-01T12:33:16;8.52;;;2.25;;
21771;SDS011;11047;47.904;8.110;2023-02-01T12:35:53;6.20;;;2.10;;
21771;SDS011;11047;47.904;8.110;2023-02-01T12:38:36;5.93;;;1.73;;
21771;SDS011;11047;47.904;8.110;2023-02-01T12:41:19;10.38;;;1.80;;
21771;SDS011;11047;47.904;8.110;2023-02-01T12:43:57;6.85;;;2.17;;
21771;SDS011;11047;47.904;8.110;2023-02-01T12:46:32;6.90;;;2.10;;
21771;SDS011;11047;47.904;8.110;2023-02-01T12:49:04;8.05;;;2.03;;
21771;SDS011;11047;47.904;8.110;2023-02-01T12:51:34;8.00;;;2.00;;
21771;SDS011;11047;47.904;8.110;2023-02-01T12:54:03;10.57;;;2.38;;
21771;SDS011;11047;47.904;8.110;2023-02-01T12:56:40;7.78;;;1.75;;
21771;SDS011;11047;47.904;8.110;2023-02-01T12:59:12;5.93;;;2.40;;
21771;SDS011;11047;47.904;8.110;2023-02-01T13:01:46;6.78;;;1.88;;
21771;SDS011;11047;47.904;8.110;2023-02-01T13:04:24;6.97;;;1.58;;
21771;SDS011;11047;47.904;8.110;2023-02-01T13:06:57;4.63;;;2.03;;
21771;SDS011;11047;47.904;8.110;2023-02-01T13:09:30;8.07;;;2.58;;
21771;SDS011;11047;47.904;8.110;2023-02-01T13:14:37;3.15;;;1.75;;
21771;SDS011;11047;47.904;8.110;2023-02-01T13:17:12;8.10;;;2.47;;
21771;SDS011;11047;47.904;8.110;2023-02-01T13:19:43;5.72;;;1.80;;
21771;SDS011;11047;47.904;8.110;2023-02-01T13:22:15;6.93;;;2.40;;
21771;SDS011;11047;47.904;8.110;2023-02-01T13:24:47;5.28;;;2.03;;
21771;SDS011;11047;47.904;8.110;2023-02-01T13:27:18;6.75;;;2.60;;
21771;SDS011;11047;47.904;8.110;2023-02-01T13:32:18;6.63;;;2.15;;
21771;SDS011;11047;47.904;8.110;2023-02-01T13:35:17;9.02;;;2.35;;
21771;SDS011;11047;47.904;8.110;2023-02-01T13:41:21;6.57;;;2.00;;
21771;SDS011;11047;47.904;8.110;2023-02-01T13:43:55;8.00;;;2.17;;
21771;SDS011;11047;47.904;8.110;2023-02-01T13:46:25;6.30;;;2.25;;
21771;SDS011;11047;47.904;8.110;2023-02-01T13:48:54;10.60;;;2.50;;
21771;SDS011;11047;47.904;8.110;2023-02-01T13:51:31;7.75;;;2.47;;
21771;SDS011;11047;47.904;8.110;2023-02-01T13:54:01;8.57;;;2.78;;
21771;SDS011;11047;47.904;8.110;2023-02-01T13:56:32;9.18;;;2.38;;
21771;SDS011;11047;47.904;8.110;2023-02-01T14:05:11;5.78;;;2.17;;
21771;SDS011;11047;47.904;8.110;2023-02-01T14:08:03;7.38;;;2.15;;
21771;SDS011;11047;47.904;8.110;2023-02-01T14:10:46;9.85;;;2.47;;
21771;SDS011;11047;47.904;8.110;2023-02-01T14:13:22;12.98;;;2.92;;
21771;SDS011;11047;47.904;8.110;2023-02-01T14:16:12;10.00;;;2.72;;
21771;SDS011;11047;47.904;8.110;2023-02-01T14:18:49;6.88;;;2.53;;
21771;SDS011;11047;47.904;8.110;2023-02-01T14:21:25;7.65;;;2.92;;
21771;SDS011;11047;47.904;8.110;2023-02-01T14:23:56;8.68;;;2.50;;
21771;SDS011;11047;47.904;8.110;2023-02-01T14:26:26;14.70;;;2.83;;
21771;SDS011;11047;47.904;8.110;2023-02-01T14:29:17;10.10;;;2.22;;
21771;SDS011;11047;47.904;8.110;2023-02-01T14:31:53;9.80;;;2.15;;
21771;SDS011;11047;47.904;8.110;2023-02-01T14:34:31;10.07;;;2.17;;
21771;SDS011;11047;47.904;8.110;2023-02-01T14:37:03;11.27;;;2.50;;
21771;SDS011;11047;47.904;8.110;2023-02-01T14:39:37;9.90;;;1.88;;
21771;SDS011;11047;47.904;8.110;2023-02-01T14:42:18;7.88;;;2.35;;
21771;SDS011;11047;47.904;8.110;2023-02-01T14:44:48;4.47;;;1.50;;
21771;SDS011;11047;47.904;8.110;2023-02-01T14:53:02;6.90;;;2.30;;
21771;SDS011;11047;47.904;8.110;2023-02-01T14:55:37;10.35;;;2.40;;
21771;SDS011;11047;47.904;8.110;2023-02-01T14:58:11;11.40;;;2.58;;
21771;SDS011;11047;47.904;8.110;2023-02-01T15:00:46;10.43;;;2.83;;
21771;SDS011;11047;47.904;8.110;2023-02-01T15:06:26;12.40;;;2.85;;
21771;SDS011;11047;47.904;8.110;2023-02-01T15:08:57;1.70;;;1.30;;
21771;SDS011;11047;47.904;8.110;2023-02-01T15:11:25;9.60;;;2.50;;
21771;SDS011;11047;47.904;8.110;2023-02-01T15:13:52;9.25;;;2.67;;
21771;SDS011;11047;47.904;8.110;2023-02-01T15:16:22;9.50;;;2.63;;
21771;SDS011;11047;47.904;8.110;2023-02-01T15:18:50;10.43;;;3.17;;
21771;SDS011;11047;47.904;8.110;2023-02-01T15:21:37;13.38;;;3.08;;
21771;SDS011;11047;47.904;8.110;2023-02-01T15:24:10;8.60;;;2.20;;
21771;SDS011;11047;47.904;8.110;2023-02-01T15:26:37;11.68;;;3.08;;
21771;SDS011;11047;47.904;8.110;2023-02-01T15:29:04;12.82;;;2.60;;
21771;SDS011;11047;47.904;8.110;2023-02-01T15:31:31;19.55;;;2.00;;
21771;SDS011;11047;47.904;8.110;2023-02-01T15:33:59;8.02;;;2.22;;
21771;SDS011;11047;47.904;8.110;2023-02-01T15:36:26;11.38;;;2.55;;
21771;SDS011;11047;47.904;8.110;2023-02-01T15:41:48;9.52;;;2.40;;
21771;SDS011;11047;47.904;8.110;2023-02-01T15:44:18;8.52;;;2.13;;
21771;SDS011;11047;47.904;8.110;2023-02-01T15:46:53;8.77;;;2.30;;
21771;SDS011;11047;47.904;8.110;2023-02-01T15:49:23;5.90;;;1.75;;